Decatur, Texas
Current Conditions -  °F | °C
As of 1:55 AM on Sunday 26 Oct 2014 (Local Time) from KLUD Reporting Station
Clear Clear  
Wind Chill: 22°   Ceiling: Unl
Heat Index: 22°   Visibility: 10mi
Dew Point: 14°   Wind: 12mph
Humidity: 62%   Direction: 180°S
Pressure: 30.03"   Gusts: NA
Location:  33.23°N, 97.59°W
Report Text: KLUD 260655Z AUTO 18010KT 10SM CLR 22/14 A3003 RMK AO2 T02160140
Loading
Personal Weather Stations






























Interactive Weather Map
Tropical Storm Tracking
New forecast layout! Learn more

10-Day Weather Forecast

Advertisements
Track Severe Weather on mobile